Huvudsida
METAR-TAF:

METAR-TAF

Flygplatser :

Hasviks flygplats

Hasviks, Norge

latitud: 70-29N, longitud: 022-09E, höjd: 10 m

Aktuellt väderrapport

Denna rapport gjordes för 22 minuter sedan, klockan 17:20 UTC
Vind 6 kt från nord/nordväst
Temperatur 12°C
Fuktighet 88%
Tryck 1018 hPa
Sikt 10 km eller mer
Få moln på en höjd av 1000 ft
Spridda moln på en höjd av 3000 ft
lätt regn,

METAR: ENHK 241720Z 34006KT 9999 -RA FEW010 SCT030 12/10 Q1018

Tid: 19:42 (17:42 UTC)

Väderprognos

Denna rapport gjordes för 2 timmar och 17 minuter sedan, klockan 15:25 UTC
Prognos gäller från 24 kl. 15 UTC till 24 kl. 19 UTC
Vind 9 kt från väst/nordväst
Sikt 10 km eller mer
Få moln på en höjd av 800 ft
Brutna moln på en höjd av 1600 ft
lätt regn,

TAF: ENHK 241525Z 2415/2419 30009KT 9999 -RA FEW008 BKN016

Aktuella väderrapporter och prognoser från 4000 flygplatser (METAR- och TAF-rapporter).

De tillgängliga stationerna syns som gula och röda prickar på kartan.

För musen över prickarna för att se namnen på stationerna.

Klicka sedan för att få väderrapporter och prognoser.

För att ändra kartan: Klicka på de gröna knapparna med ett svart kors på för att zooma in; den gröna knappen med ett streck på för att zooma ut; eller på de gröna pilarna för angränsande kartor.


METAR-TAF: